createdAt,value
2019-03-10T03:07:41.280Z,56.6
2019-03-10T03:08:31.347Z,56.6
2019-03-10T03:09:22.021Z,56.6
2019-03-10T03:10:11.725Z,56.6
2019-03-10T03:11:01.522Z,56.6
2019-03-10T03:11:52.425Z,56.6
2019-03-10T03:12:41.954Z,56.6
2019-03-10T03:13:31.677Z,56.6
2019-03-10T03:14:22.580Z,56.6
2019-03-10T03:15:12.602Z,56.6
2019-03-10T03:16:02.154Z,56.5
2019-03-10T03:16:55.362Z,56.5
2019-03-10T03:17:41.469Z,56.5
2019-03-10T03:18:32.302Z,56.5
2019-03-10T03:19:21.946Z,56.5
2019-03-10T03:20:13.004Z,56.5
2019-03-10T03:21:02.899Z,56.5
2019-03-10T03:21:53.121Z,56.5
2019-03-10T03:22:42.650Z,56.5
2019-03-10T03:23:33.206Z,56.4
2019-03-10T03:24:23.267Z,56.4
2019-03-10T03:25:12.796Z,56.4
2019-03-10T03:26:02.692Z,56.4
2019-03-10T03:26:53.467Z,56.4
2019-03-10T03:27:42.744Z,56.4
2019-03-10T03:28:33.430Z,56.4
2019-03-10T03:29:23.099Z,56.4
2019-03-10T03:30:13.289Z,56.4
2019-03-10T03:31:03.696Z,56.4
2019-03-10T03:31:52.296Z,56.4
2019-03-10T03:32:43.606Z,56.4
2019-03-10T03:33:33.539Z,56.4
2019-03-10T03:34:23.107Z,56.4
2019-03-10T03:35:14.217Z,56.4
2019-03-10T03:36:03.966Z,56.4
2019-03-10T03:36:53.899Z,56.4
2019-03-10T03:37:43.665Z,56.4
2019-03-10T03:38:34.311Z,56.4
2019-03-10T03:39:23.619Z,56.3
2019-03-10T03:40:13.597Z,56.3
2019-03-10T03:41:03.944Z,56.3
2019-03-10T03:41:54.299Z,56.3
2019-03-10T03:42:44.672Z,56.3
2019-03-10T03:43:34.681Z,56.3
2019-03-10T03:44:24.179Z,56.3
2019-03-10T03:45:14.293Z,56.3
2019-03-10T03:46:04.130Z,56.3
2019-03-10T03:46:54.436Z,56.3
2019-03-10T03:47:44.105Z,56.3
2019-03-10T03:48:34.496Z,56.3
2019-03-10T03:49:24.848Z,56.3
2019-03-10T03:50:14.006Z,56.3
2019-03-10T03:51:04.470Z,56.3
2019-03-10T03:51:55.110Z,56.3
2019-03-10T03:52:44.227Z,56.3
2019-03-10T03:53:34.852Z,56.3
2019-03-10T03:54:24.442Z,56.2
2019-03-10T03:55:15.010Z,56.2
2019-03-10T03:56:04.743Z,56.2
2019-03-10T03:56:54.304Z,56.2
2019-03-10T03:57:45.102Z,56.2
2019-03-10T03:58:35.262Z,56.2
2019-03-10T03:59:24.598Z,56.2
2019-03-10T04:00:14.565Z,56.2
2019-03-10T04:01:05.471Z,56.1
2019-03-10T04:01:56.044Z,56.1
2019-03-10T04:02:45.315Z,56.1
2019-03-10T04:03:36.132Z,56.1
2019-03-10T04:04:25.403Z,56.1
2019-03-10T04:05:15.812Z,56.1
2019-03-10T04:06:05.855Z,56.1
2019-03-10T04:06:54.866Z,56.1
2019-03-10T04:07:46.004Z,56.1
2019-03-10T04:08:35.167Z,56.1
2019-03-10T04:09:26.085Z,56.1
2019-03-10T04:10:15.832Z,56.1
2019-03-10T04:11:05.369Z,56.1
2019-03-10T04:11:55.676Z,56.1
2019-03-10T04:12:45.139Z,56.1
2019-03-10T04:13:35.771Z,56.1
2019-03-10T04:14:26.963Z,56.1
2019-03-10T04:15:16.697Z,56.1
2019-03-10T04:16:06.003Z,56
2019-03-10T04:16:56.339Z,56
2019-03-10T04:17:46.916Z,56
2019-03-10T04:18:37.293Z,56
2019-03-10T04:19:26.386Z,56
2019-03-10T04:20:16.756Z,56
2019-03-10T04:21:06.912Z,56
2019-03-10T04:21:56.871Z,56
2019-03-10T04:22:47.496Z,56
2019-03-10T04:23:37.256Z,55.9
2019-03-10T04:24:26.293Z,56
2019-03-10T04:25:17.209Z,55.9
2019-03-10T04:26:07.287Z,55.9
2019-03-10T04:26:57.017Z,55.9
2019-03-10T04:27:47.303Z,55.9
2019-03-10T04:28:37.742Z,55.9
2019-03-10T04:29:27.747Z,55.9
2019-03-10T04:30:17.797Z,55.9
2019-03-10T04:31:07.872Z,55.9
2019-03-10T04:31:58.231Z,55.9
2019-03-10T04:32:48.216Z,55.9
2019-03-10T04:33:38.343Z,55.9
2019-03-10T04:34:27.827Z,55.9
2019-03-10T04:35:17.822Z,55.9
2019-03-10T04:36:08.146Z,55.9
2019-03-10T04:36:58.510Z,55.9
2019-03-10T04:37:48.335Z,55.9
2019-03-10T04:38:38.307Z,55.8
2019-03-10T04:39:27.834Z,55.8
2019-03-10T04:40:18.209Z,55.8
2019-03-10T04:41:08.794Z,55.8
2019-03-10T04:41:58.049Z,55.8
2019-03-10T04:42:47.789Z,55.8
2019-03-10T04:43:38.726Z,55.8
2019-03-10T04:44:28.478Z,55.8
2019-03-10T04:45:19.088Z,55.8
2019-03-10T04:46:08.710Z,55.8
2019-03-10T04:46:59.204Z,55.8
2019-03-10T04:47:48.994Z,55.8
2019-03-10T04:48:39.337Z,55.8
2019-03-10T04:49:29.389Z,55.8
2019-03-10T04:50:21.189Z,55.8
2019-03-10T04:51:09.236Z,55.8
2019-03-10T04:51:58.448Z,55.7
2019-03-10T04:52:49.131Z,55.7
2019-03-10T04:53:39.714Z,55.7
2019-03-10T04:54:29.222Z,55.7
2019-03-10T04:55:19.243Z,55.7
2019-03-10T04:56:09.330Z,55.7
2019-03-10T04:57:01.581Z,55.7
2019-03-10T04:57:49.718Z,55.7
2019-03-10T04:58:39.536Z,55.7
2019-03-10T04:59:29.586Z,55.6
2019-03-10T05:00:19.954Z,55.7
2019-03-10T05:01:10.001Z,55.7
2019-03-10T05:01:59.749Z,55.6
2019-03-10T05:02:50.107Z,55.6
2019-03-10T05:03:39.917Z,55.6
2019-03-10T05:04:32.708Z,55.6
2019-03-10T05:05:19.698Z,55.6
2019-03-10T05:06:10.427Z,55.6
2019-03-10T05:07:00.397Z,55.6
2019-03-10T05:07:50.438Z,55.6
2019-03-10T05:08:40.208Z,55.6
2019-03-10T05:09:30.271Z,55.6
2019-03-10T05:10:20.385Z,55.6
2019-03-10T05:11:10.478Z,55.6
2019-03-10T05:12:00.473Z,55.6
2019-03-10T05:12:50.549Z,55.6
2019-03-10T05:13:41.147Z,55.6
2019-03-10T05:14:31.188Z,55.5
2019-03-10T05:15:20.751Z,55.6
2019-03-10T05:16:10.557Z,55.5
2019-03-10T05:17:00.812Z,55.5
2019-03-10T05:17:50.609Z,55.5
2019-03-10T05:18:40.671Z,55.5
2019-03-10T05:19:30.242Z,55.5
2019-03-10T05:20:21.613Z,55.5
2019-03-10T05:21:11.523Z,55.4
2019-03-10T05:22:01.175Z,55.5
2019-03-10T05:22:51.615Z,55.5
2019-03-10T05:23:41.637Z,55.4
2019-03-10T05:24:31.148Z,55.4
2019-03-10T05:25:21.664Z,55.4
2019-03-10T05:26:11.320Z,55.4
2019-03-10T05:27:01.834Z,55.4
2019-03-10T05:27:51.117Z,55.4
2019-03-10T05:28:41.937Z,55.4
2019-03-10T05:29:32.010Z,55.4
2019-03-10T05:30:22.334Z,55.4
2019-03-10T05:31:12.197Z,55.4
2019-03-10T05:32:02.242Z,55.4
2019-03-10T05:32:52.307Z,55.4
2019-03-10T05:33:41.810Z,55.4
2019-03-10T05:34:31.801Z,55.4
2019-03-10T05:35:22.167Z,55.4
2019-03-10T05:36:12.226Z,55.3
2019-03-10T05:37:02.274Z,55.4
2019-03-10T05:37:52.334Z,55.3
2019-03-10T05:38:42.678Z,55.3
2019-03-10T05:39:32.159Z,55.3
2019-03-10T05:40:22.499Z,55.3
2019-03-10T05:41:11.454Z,55.3
2019-03-10T05:42:02.720Z,55.3
2019-03-10T05:42:52.966Z,55.3
2019-03-10T05:43:43.049Z,55.3
2019-03-10T05:44:33.098Z,55.3
2019-03-10T05:45:22.584Z,55.3
2019-03-10T05:46:13.250Z,55.3
2019-03-10T05:47:02.983Z,55.3
2019-03-10T05:47:53.351Z,55.3
2019-03-10T05:48:43.778Z,55.2
2019-03-10T05:49:32.620Z,55.2
2019-03-10T05:50:23.498Z,55.3
2019-03-10T05:51:13.293Z,55.2
2019-03-10T05:52:03.101Z,55.2
2019-03-10T05:52:53.487Z,55.2
2019-03-10T05:53:42.913Z,55.2
2019-03-10T05:54:33.823Z,55.2
2019-03-10T05:55:24.151Z,55.2
2019-03-10T05:56:13.392Z,55.2
2019-03-10T05:57:04.001Z,55.2
2019-03-10T05:57:53.793Z,55.1
2019-03-10T05:58:44.201Z,55.1
2019-03-10T05:59:33.658Z,55.1
2019-03-10T06:00:23.688Z,55.1
2019-03-10T06:01:14.336Z,55.1
2019-03-10T06:02:04.680Z,55.1
2019-03-10T06:02:53.578Z,55.1
2019-03-10T06:03:44.475Z,55.1
2019-03-10T06:05:41.404Z,55.1
2019-03-10T06:06:31.405Z,55.1
2019-03-10T06:07:21.475Z,55.1
2019-03-10T06:08:11.783Z,55.1
2019-03-10T06:09:01.089Z,55.1
2019-03-10T06:09:52.202Z,55
2019-03-10T06:10:41.697Z,55
2019-03-10T06:11:32.539Z,55
2019-03-10T06:12:22.417Z,55
2019-03-10T06:13:11.602Z,55
2019-03-10T06:14:01.669Z,55
2019-03-10T06:14:52.315Z,55
2019-03-10T06:15:42.329Z,55
2019-03-10T06:16:32.665Z,55
2019-03-10T06:17:23.949Z,54.9
2019-03-10T06:18:18.266Z,54.9
2019-03-10T06:19:02.859Z,54.9
2019-03-10T06:19:52.667Z,55
2019-03-10T06:20:42.704Z,54.9
2019-03-10T06:21:32.789Z,54.9
2019-03-10T06:22:22.254Z,54.9
2019-03-10T06:23:12.624Z,54.9
2019-03-10T06:24:02.668Z,54.9
2019-03-10T06:24:52.736Z,54.9
2019-03-10T06:25:42.571Z,54.9
2019-03-10T06:26:33.404Z,54.9
2019-03-10T06:27:23.466Z,54.9
2019-03-10T06:28:12.696Z,54.9
2019-03-10T06:29:03.344Z,54.9
2019-03-10T06:29:53.359Z,54.9
2019-03-10T06:30:43.218Z,54.9
2019-03-10T06:31:33.571Z,54.9
2019-03-10T06:32:23.552Z,54.9
2019-03-10T06:33:12.826Z,54.8
2019-03-10T06:34:03.720Z,54.8
2019-03-10T06:34:53.173Z,54.8
2019-03-10T06:35:43.503Z,54.8
2019-03-10T06:36:33.013Z,54.8
2019-03-10T06:37:23.941Z,54.8
2019-03-10T06:38:13.960Z,54.8
2019-03-10T06:39:03.831Z,54.8
2019-03-10T06:39:53.249Z,54.8
2019-03-10T06:40:43.938Z,54.8
2019-03-10T06:41:33.460Z,54.8
2019-03-10T06:42:23.788Z,54.8
2019-03-10T06:43:13.815Z,54.8
2019-03-10T06:44:04.648Z,54.8
2019-03-10T06:44:54.490Z,54.8
2019-03-10T06:45:43.950Z,54.8
2019-03-10T06:46:34.005Z,54.8
2019-03-10T06:47:24.340Z,54.8
2019-03-10T06:48:14.110Z,54.8
2019-03-10T06:49:04.732Z,54.7
2019-03-10T06:49:54.830Z,54.7
2019-03-10T06:50:44.612Z,54.8
2019-03-10T06:51:34.369Z,54.7
2019-03-10T06:52:25.300Z,54.7
2019-03-10T06:53:15.388Z,54.7
2019-03-10T06:54:05.385Z,54.7
2019-03-10T06:54:54.999Z,54.6
2019-03-10T06:55:44.954Z,54.6
2019-03-10T06:56:35.282Z,54.6
2019-03-10T06:57:25.127Z,54.6
2019-03-10T06:58:14.904Z,54.6
2019-03-10T06:59:05.479Z,54.6
2019-03-10T06:59:55.354Z,54.6
2019-03-10T07:00:45.626Z,54.6
2019-03-10T07:01:35.662Z,54.6
2019-03-10T07:02:25.690Z,54.6
2019-03-10T07:03:15.762Z,54.6
2019-03-10T07:05:56.012Z,54.6
2019-03-10T07:06:31.409Z,54.6
2019-03-10T07:07:21.650Z,54.6
2019-03-10T07:08:11.241Z,54.6
2019-03-10T07:09:01.819Z,54.6
2019-03-10T07:09:52.206Z,54.6
2019-03-10T07:10:41.944Z,54.5
2019-03-10T07:11:32.326Z,54.5
2019-03-10T07:12:22.337Z,54.5
2019-03-10T07:13:12.404Z,54.5
2019-03-10T07:14:01.907Z,54.5
2019-03-10T07:14:52.526Z,54.5
2019-03-10T07:15:41.193Z,54.4
2019-03-10T07:16:31.820Z,54.4
2019-03-10T07:17:21.871Z,54.5
2019-03-10T07:18:11.388Z,54.4
2019-03-10T07:19:02.593Z,54.4
2019-03-10T07:19:52.037Z,54.4
2019-03-10T07:20:42.136Z,54.4
2019-03-10T07:21:31.028Z,54.4
2019-03-10T07:22:22.803Z,54.4
2019-03-10T07:23:12.670Z,54.4
2019-03-10T07:24:02.633Z,54.4
2019-03-10T07:24:52.690Z,54.4
2019-03-10T07:25:42.186Z,54.4
2019-03-10T07:26:32.558Z,54.4
2019-03-10T07:27:22.848Z,54.4
2019-03-10T07:28:12.655Z,54.4
2019-03-10T07:29:02.433Z,54.4
2019-03-10T07:29:52.747Z,54.4
2019-03-10T07:30:42.820Z,54.3
2019-03-10T07:31:33.147Z,54.4
2019-03-10T07:32:23.060Z,54.4
2019-03-10T07:33:13.080Z,54.3
2019-03-10T07:34:03.330Z,54.3
2019-03-10T07:34:53.665Z,54.3
2019-03-10T07:35:43.740Z,54.3
2019-03-10T07:36:33.509Z,54.3
2019-03-10T07:37:23.857Z,54.3
2019-03-10T07:38:13.904Z,54.3
2019-03-10T07:39:03.690Z,54.3
2019-03-10T07:39:53.500Z,54.3
2019-03-10T07:40:43.264Z,54.3
2019-03-10T07:41:34.175Z,54.3
2019-03-10T07:42:24.493Z,54.3
2019-03-10T07:43:13.741Z,54.3
2019-03-10T07:44:04.646Z,54.3
2019-03-10T07:44:54.394Z,54.3
2019-03-10T07:45:44.162Z,54.3
2019-03-10T07:46:34.809Z,54.3
2019-03-10T07:47:24.576Z,54.2
2019-03-10T07:48:14.371Z,54.2
2019-03-10T07:49:04.722Z,54.2
2019-03-10T07:49:54.214Z,54.2
2019-03-10T07:50:43.999Z,54.2
2019-03-10T07:51:35.155Z,54.2
2019-03-10T07:52:25.106Z,54.2
2019-03-10T07:53:14.984Z,54.2
2019-03-10T07:54:04.794Z,54.1
2019-03-10T07:54:54.854Z,54.1
2019-03-10T07:55:44.934Z,54.1
2019-03-10T07:56:34.711Z,54.1
2019-03-10T07:57:24.270Z,54.1
2019-03-10T07:58:14.526Z,54.1
2019-03-10T07:59:05.173Z,54.1
2019-03-10T07:59:54.944Z,54.1
2019-03-10T08:00:45.873Z,54.1
2019-03-10T08:01:35.626Z,54.1
2019-03-10T08:02:25.410Z,54.1
2019-03-10T08:03:15.750Z,54.1
2019-03-10T08:04:05.869Z,54.1
2019-03-10T08:04:55.379Z,54.1
2019-03-10T08:05:45.655Z,54.1
2019-03-10T08:06:35.430Z,54.1
2019-03-10T08:07:25.820Z,54
2019-03-10T08:08:15.105Z,54.1
2019-03-10T08:09:06.165Z,54
2019-03-10T08:09:56.228Z,54
2019-03-10T08:10:45.713Z,54
2019-03-10T08:11:35.493Z,54
2019-03-10T08:12:26.090Z,54
2019-03-10T08:13:15.636Z,54
2019-03-10T08:14:05.737Z,54
2019-03-10T08:14:56.575Z,54
2019-03-10T08:15:46.355Z,54
2019-03-10T08:16:36.130Z,54
2019-03-10T08:17:28.900Z,53.9
2019-03-10T08:18:16.250Z,53.9
2019-03-10T08:19:06.073Z,53.9
2019-03-10T08:19:56.992Z,53.9
2019-03-10T08:20:46.984Z,53.9
2019-03-10T08:21:37.080Z,53.9
2019-03-10T08:22:26.285Z,53.9
2019-03-10T08:23:17.204Z,53.9
2019-03-10T08:24:07.504Z,53.9
2019-03-10T08:24:57.013Z,53.9
2019-03-10T08:25:46.802Z,53.9
2019-03-10T08:26:37.669Z,53.9
2019-03-10T08:27:27.502Z,53.9
2019-03-10T08:28:17.304Z,53.9
2019-03-10T08:29:07.869Z,53.9
2019-03-10T08:29:57.374Z,53.9
2019-03-10T08:30:47.477Z,53.9
2019-03-10T08:31:37.832Z,53.9
2019-03-10T08:32:26.761Z,53.8
2019-03-10T08:33:17.374Z,53.8
2019-03-10T08:34:07.484Z,53.8
2019-03-10T08:34:58.299Z,53.8
2019-03-10T08:35:47.857Z,53.8
2019-03-10T08:36:37.926Z,53.8
2019-03-10T08:37:28.474Z,53.8
2019-03-10T08:38:18.281Z,53.8
2019-03-10T08:39:07.515Z,53.8
2019-03-10T08:39:58.139Z,53.8
2019-03-10T08:40:48.456Z,53.8
2019-03-10T08:41:38.795Z,53.8
2019-03-10T08:42:28.339Z,53.8
2019-03-10T08:43:18.720Z,53.8
2019-03-10T08:44:08.391Z,53.8
2019-03-10T08:44:57.936Z,53.7
2019-03-10T08:45:49.133Z,53.7
2019-03-10T08:46:38.855Z,53.7
2019-03-10T08:47:27.840Z,53.7
2019-03-10T08:48:19.249Z,53.7
2019-03-10T08:49:09.052Z,53.7
2019-03-10T08:49:59.118Z,53.7
2019-03-10T08:50:49.177Z,53.7
2019-03-10T08:51:39.240Z,53.7
2019-03-10T08:52:29.278Z,53.6
2019-03-10T08:53:19.118Z,53.6
2019-03-10T08:54:09.213Z,53.6
2019-03-10T08:54:59.738Z,53.6
2019-03-10T08:55:48.767Z,53.6
2019-03-10T08:56:39.375Z,53.6
2019-03-10T08:57:29.995Z,53.6
2019-03-10T08:58:19.702Z,53.6
2019-03-10T08:59:10.089Z,53.6
2019-03-10T08:59:59.263Z,53.6
2019-03-10T09:00:49.662Z,53.6
2019-03-10T09:01:39.487Z,53.6
2019-03-10T09:02:29.721Z,53.6
2019-03-10T09:03:19.595Z,53.6
2019-03-10T09:04:10.129Z,53.8
2019-03-10T09:05:00.336Z,53.8
2019-03-10T09:05:50.254Z,53.9
2019-03-10T09:06:40.290Z,53.9
2019-03-10T09:07:29.880Z,53.9
2019-03-10T09:08:20.142Z,54
2019-03-10T09:09:10.774Z,54.1
2019-03-10T09:10:00.873Z,54.2
2019-03-10T09:10:49.705Z,54.3
2019-03-10T09:11:40.197Z,54.4
2019-03-10T09:12:30.452Z,54.5
2019-03-10T09:13:20.529Z,54.6
2019-03-10T09:14:10.591Z,54.6
2019-03-10T09:15:00.976Z,54.7
2019-03-10T09:15:49.900Z,54.8
2019-03-10T09:16:41.317Z,54.9
2019-03-10T09:17:31.137Z,54.9
2019-03-10T09:18:20.891Z,55.1
2019-03-10T09:19:10.401Z,55.2
2019-03-10T09:20:00.906Z,55.3
2019-03-10T09:20:51.118Z,55.4
2019-03-10T09:21:41.478Z,55.4
2019-03-10T09:22:31.201Z,55.5
2019-03-10T09:23:21.526Z,55.6
2019-03-10T09:24:11.611Z,55.7
2019-03-10T09:25:01.938Z,55.8
2019-03-10T09:25:51.749Z,55.9
2019-03-10T09:26:40.932Z,56
2019-03-10T09:27:32.991Z,56.1
2019-03-10T09:28:21.632Z,56.2
2019-03-10T09:29:11.763Z,56.3
2019-03-10T09:30:02.164Z,56.4
2019-03-10T09:30:51.799Z,56.5
2019-03-10T09:31:42.125Z,56.6
2019-03-10T09:32:32.248Z,56.7
2019-03-10T09:33:22.603Z,56.8
2019-03-10T09:34:11.583Z,56.9
2019-03-10T09:35:02.629Z,57
2019-03-10T09:35:52.420Z,57.1
2019-03-10T09:36:41.922Z,57.1
2019-03-10T09:37:32.066Z,57.2
2019-03-10T09:38:22.895Z,57.3
2019-03-10T09:39:12.402Z,57.4
2019-03-10T09:40:03.253Z,57.4
2019-03-10T09:40:52.865Z,57.6
2019-03-10T09:41:42.615Z,57.7
2019-03-10T09:42:32.250Z,57.8
2019-03-10T09:43:23.277Z,57.9
2019-03-10T09:44:13.055Z,58
2019-03-10T09:45:03.293Z,58.1
2019-03-10T09:45:52.903Z,58.1
2019-03-10T09:46:42.734Z,58.3
2019-03-10T09:47:32.750Z,58.3
2019-03-10T09:48:23.359Z,58.4
2019-03-10T09:49:13.394Z,58.5
2019-03-10T09:50:52.979Z,58.7
2019-03-10T09:51:43.032Z,58.8
2019-03-10T09:52:33.350Z,58.9
2019-03-10T09:53:23.724Z,59
2019-03-10T09:54:13.492Z,59.1
2019-03-10T09:55:06.066Z,59.1
2019-03-10T09:55:53.889Z,59.3
2019-03-10T09:56:43.099Z,59.3
2019-03-10T09:57:33.739Z,59.4
2019-03-10T09:58:23.796Z,59.4
2019-03-10T09:59:14.395Z,59.5
2019-03-10T10:00:04.686Z,59.6
2019-03-10T10:00:54.501Z,59.6
2019-03-10T10:01:43.805Z,59.7
2019-03-10T10:02:34.089Z,59.8
2019-03-10T10:03:24.689Z,59.9
2019-03-10T10:04:14.321Z,59.9
2019-03-10T10:06:40.937Z,60.1
2019-03-10T10:07:30.411Z,60.3
2019-03-10T10:08:21.413Z,60.3
2019-03-10T10:09:11.078Z,60.4
2019-03-10T10:10:01.525Z,60.5
2019-03-10T10:10:51.741Z,60.6
2019-03-10T10:11:41.576Z,60.6
2019-03-10T10:12:31.581Z,60.7
2019-03-10T10:13:21.945Z,60.8
2019-03-10T10:14:12.285Z,60.9
2019-03-10T10:15:01.812Z,61
2019-03-10T10:15:52.369Z,61.1
2019-03-10T10:16:41.618Z,61.2
2019-03-10T10:17:31.945Z,61.3
2019-03-10T10:18:21.710Z,61.3
2019-03-10T10:19:12.130Z,61.4
2019-03-10T10:20:02.489Z,61.6
2019-03-10T10:20:52.733Z,61.6
2019-03-10T10:21:41.960Z,61.7
2019-03-10T10:22:32.042Z,61.8
2019-03-10T10:23:22.097Z,61.9
2019-03-10T10:24:12.220Z,62
2019-03-10T10:25:02.808Z,62.1
2019-03-10T10:25:52.079Z,62.2
2019-03-10T10:26:42.430Z,62.3
2019-03-10T10:27:32.488Z,62.4
2019-03-10T10:28:21.727Z,62.5
2019-03-10T10:29:12.600Z,62.6
2019-03-10T10:30:02.657Z,62.7
2019-03-10T10:30:52.168Z,62.7
2019-03-10T10:31:41.987Z,62.9
2019-03-10T10:32:32.825Z,62.9
2019-03-10T10:33:22.978Z,63
2019-03-10T10:34:13.427Z,63.1
2019-03-10T10:35:03.457Z,63.2
2019-03-10T10:35:52.999Z,63.3
2019-03-10T10:36:42.814Z,63.4
2019-03-10T10:37:35.910Z,63.4
2019-03-10T10:38:23.609Z,63.6
2019-03-10T10:39:13.793Z,63.6
2019-03-10T10:40:04.117Z,63.7
2019-03-10T10:40:53.629Z,63.8
2019-03-10T10:41:43.954Z,63.8
2019-03-10T10:42:34.037Z,63.9
2019-03-10T10:43:23.336Z,63.9
2019-03-10T10:44:13.889Z,64
2019-03-10T10:45:04.070Z,64.1
2019-03-10T10:45:56.848Z,64.1
2019-03-10T10:46:44.340Z,64.3
2019-03-10T10:47:33.871Z,64.3
2019-03-10T10:48:23.896Z,64.4
2019-03-10T10:49:14.309Z,64.5
2019-03-10T10:50:05.002Z,64.6
2019-03-10T10:50:54.457Z,64.7
2019-03-10T10:51:45.116Z,64.8
2019-03-10T10:52:34.618Z,64.8
2019-03-10T10:53:26.323Z,64.9
2019-03-10T10:54:14.733Z,65
2019-03-10T10:55:04.716Z,65.1
2019-03-10T10:55:54.819Z,65.1
2019-03-10T10:56:45.282Z,65.2
2019-03-10T10:57:35.034Z,65.3
2019-03-10T10:58:24.914Z,65.3
2019-03-10T10:59:15.257Z,65.4
2019-03-10T11:00:04.774Z,65.6
2019-03-10T11:00:55.648Z,65.6
2019-03-10T11:01:44.890Z,65.7
2019-03-10T11:02:35.758Z,65.8
2019-03-10T11:03:25.324Z,65.8
2019-03-10T11:04:15.334Z,65.9
2019-03-10T11:05:05.236Z,66
2019-03-10T11:05:55.463Z,66.1
2019-03-10T11:06:45.798Z,66.1
2019-03-10T11:07:35.874Z,66.2
2019-03-10T11:08:25.705Z,66.3
2019-03-10T11:09:15.735Z,66.3
2019-03-10T11:10:06.407Z,66.3
2019-03-10T11:10:55.860Z,66.4
2019-03-10T11:11:46.245Z,66.4
2019-03-10T11:12:36.215Z,66.5
2019-03-10T11:13:25.792Z,66.6
2019-03-10T11:14:15.505Z,66.6
2019-03-10T11:15:06.697Z,66.7
2019-03-10T11:15:57.633Z,66.8
2019-03-10T11:16:48.610Z,66.8
2019-03-10T11:17:36.242Z,66.9
2019-03-10T11:18:25.804Z,66.9
2019-03-10T11:19:16.437Z,66.9
2019-03-10T11:20:06.514Z,67
2019-03-10T11:20:59.121Z,67.1
2019-03-10T11:21:46.905Z,67.1
2019-03-10T11:22:36.860Z,67.2
2019-03-10T11:23:26.719Z,67.2
2019-03-10T11:24:17.293Z,67.3
2019-03-10T11:25:06.302Z,67.4
2019-03-10T11:25:56.135Z,67.4
2019-03-10T11:26:46.689Z,67.4
2019-03-10T11:27:36.559Z,67.5
2019-03-10T11:28:26.886Z,67.6
2019-03-10T11:29:17.224Z,67.6
2019-03-10T11:30:06.022Z,67.7
2019-03-10T11:30:56.275Z,67.8
2019-03-10T11:31:46.882Z,67.8
2019-03-10T11:32:37.202Z,67.9
2019-03-10T11:33:30.179Z,67.9
2019-03-10T11:34:16.763Z,68
2019-03-10T11:35:07.340Z,68
2019-03-10T11:35:57.872Z,68.1
2019-03-10T11:36:46.972Z,68.1
2019-03-10T11:37:37.591Z,68.2
2019-03-10T11:38:28.101Z,68.2
2019-03-10T11:39:17.709Z,68.3
2019-03-10T11:40:07.883Z,68.3
2019-03-10T11:40:58.270Z,68.4
2019-03-10T11:41:50.994Z,68.4
2019-03-10T11:42:38.693Z,68.5
2019-03-10T11:43:28.281Z,68.6
2019-03-10T11:44:18.543Z,68.6
2019-03-10T11:45:08.301Z,68.6
2019-03-10T11:45:57.636Z,68.7
2019-03-10T11:46:48.453Z,68.8
2019-03-10T11:47:38.268Z,68.8
2019-03-10T11:48:28.876Z,68.8
2019-03-10T11:49:18.924Z,68.9
2019-03-10T11:50:09.065Z,68.9
2019-03-10T11:50:59.308Z,69
2019-03-10T11:51:48.913Z,69.1
2019-03-10T11:52:38.358Z,69.1
2019-03-10T11:53:30.241Z,69.1
2019-03-10T11:54:19.026Z,69.1
2019-03-10T11:55:09.882Z,69.1
2019-03-10T11:55:59.412Z,69.1
2019-03-10T11:56:49.770Z,69.1
2019-03-10T11:57:38.990Z,69.1
2019-03-10T11:58:32.283Z,69.1
2019-03-10T11:59:18.330Z,69.1
2019-03-10T12:00:09.241Z,69.2
2019-03-10T12:00:59.553Z,69.2
2019-03-10T12:01:49.537Z,69.2
2019-03-10T12:02:39.902Z,69.2
2019-03-10T12:03:29.105Z,69.2
2019-03-10T12:04:19.773Z,69.1
2019-03-10T12:06:41.104Z,69.1
2019-03-10T12:07:30.882Z,69.2
2019-03-10T12:08:21.543Z,69.2
2019-03-10T12:09:11.287Z,69.2
2019-03-10T12:10:01.923Z,69.1
2019-03-10T12:10:51.402Z,69.1
2019-03-10T12:11:41.532Z,69.1
2019-03-10T12:12:31.232Z,69.1
2019-03-10T12:13:21.862Z,69.1
2019-03-10T12:14:11.639Z,69.1
2019-03-10T12:15:01.977Z,69.1
2019-03-10T12:15:52.066Z,69.1
2019-03-10T12:16:42.157Z,69.1
2019-03-10T12:17:32.154Z,69.1
2019-03-10T12:18:22.291Z,69.1
2019-03-10T12:19:12.013Z,69.2
2019-03-10T12:20:01.940Z,69.2
2019-03-10T12:20:52.425Z,69.2
2019-03-10T12:21:42.190Z,69.3
2019-03-10T12:22:32.597Z,69.3
2019-03-10T12:23:22.606Z,69.3
2019-03-10T12:24:12.486Z,69.3
2019-03-10T12:25:02.476Z,69.3
2019-03-10T12:25:52.774Z,69.3
2019-03-10T12:26:43.130Z,69.3
2019-03-10T12:27:32.396Z,69.3
2019-03-10T12:28:22.371Z,69.3
2019-03-10T12:29:12.441Z,69.4
2019-03-10T12:30:03.259Z,69.4
2019-03-10T12:30:52.830Z,69.4
2019-03-10T12:31:43.213Z,69.4
2019-03-10T12:32:32.672Z,69.4
2019-03-10T12:33:23.180Z,69.4
2019-03-10T12:34:13.399Z,69.4
2019-03-10T12:35:02.966Z,69.4
2019-03-10T12:35:52.925Z,69.5
2019-03-10T12:36:44.193Z,69.5
2019-03-10T12:37:33.868Z,69.5
2019-03-10T12:38:23.958Z,69.6
2019-03-10T12:39:12.872Z,69.6
2019-03-10T12:40:03.920Z,69.6
2019-03-10T12:40:53.289Z,69.6
2019-03-10T12:41:43.893Z,69.6
2019-03-10T12:42:33.948Z,69.6
2019-03-10T12:43:23.029Z,69.7
2019-03-10T12:44:13.588Z,69.7
2019-03-10T12:45:04.189Z,69.7
2019-03-10T12:45:54.190Z,69.7
2019-03-10T12:46:43.726Z,69.8
2019-03-10T12:47:33.302Z,69.8
2019-03-10T12:48:24.645Z,69.8
2019-03-10T12:49:14.787Z,69.8
2019-03-10T12:50:03.780Z,69.8
2019-03-10T12:50:54.575Z,69.8
2019-03-10T12:51:44.074Z,69.8
2019-03-10T12:52:34.685Z,69.8
2019-03-10T12:53:24.750Z,69.8
2019-03-10T12:54:14.530Z,69.8
2019-03-10T12:55:05.237Z,69.8
2019-03-10T12:55:54.394Z,69.8
2019-03-10T12:56:45.704Z,69.8
2019-03-10T12:57:35.082Z,69.8
2019-03-10T12:58:25.383Z,69.8
2019-03-10T12:59:13.849Z,69.8
2019-03-10T13:00:04.474Z,69.8
2019-03-10T13:01:07.657Z,69.8
2019-03-10T13:01:45.649Z,69.9
2019-03-10T13:02:35.161Z,69.9
2019-03-10T13:03:25.493Z,69.9
2019-03-10T13:04:15.348Z,69.8
2019-03-10T13:05:05.106Z,69.9
2019-03-10T13:05:55.421Z,69.9
2019-03-10T13:06:45.438Z,69.8
2019-03-10T13:07:35.801Z,69.9
2019-03-10T13:08:24.953Z,69.9
2019-03-10T13:09:15.901Z,69.8
2019-03-10T13:10:05.429Z,69.8
2019-03-10T13:10:56.089Z,69.8
2019-03-10T13:11:46.118Z,69.8
2019-03-10T13:12:36.179Z,69.8
2019-03-10T13:13:25.419Z,69.9
2019-03-10T13:14:16.286Z,69.8
2019-03-10T13:15:06.036Z,69.8
2019-03-10T13:15:56.121Z,69.8
2019-03-10T13:16:45.944Z,69.8
2019-03-10T13:17:35.988Z,69.8
2019-03-10T13:18:25.832Z,69.8
2019-03-10T13:19:16.509Z,69.8
2019-03-10T13:20:06.756Z,69.8
2019-03-10T13:20:56.780Z,69.8
2019-03-10T13:21:47.658Z,69.8
2019-03-10T13:22:36.711Z,69.8
2019-03-10T13:23:26.928Z,69.8
2019-03-10T13:24:16.440Z,69.8
2019-03-10T13:25:06.316Z,69.8
2019-03-10T13:25:56.168Z,69.8
2019-03-10T13:26:46.990Z,69.8
2019-03-10T13:27:35.740Z,69.8
2019-03-10T13:28:26.624Z,69.8
2019-03-10T13:29:16.633Z,69.8
2019-03-10T13:30:06.955Z,69.8
2019-03-10T13:30:56.475Z,69.8
2019-03-10T13:31:47.337Z,69.8
2019-03-10T13:32:36.582Z,69.8
2019-03-10T13:33:26.931Z,69.8
2019-03-10T13:34:17.275Z,69.8
2019-03-10T13:35:07.037Z,69.8
2019-03-10T13:36:00.517Z,69.8
2019-03-10T13:36:47.122Z,69.8
2019-03-10T13:37:37.702Z,69.8
2019-03-10T13:38:28.033Z,69.8
2019-03-10T13:39:17.828Z,69.7
2019-03-10T13:40:07.904Z,69.7
2019-03-10T13:40:58.497Z,69.7
2019-03-10T13:41:48.277Z,69.7
2019-03-10T13:42:37.221Z,69.7
2019-03-10T13:43:28.126Z,69.7
2019-03-10T13:44:18.475Z,69.7
2019-03-10T13:45:08.576Z,69.6
2019-03-10T13:45:58.035Z,69.6
2019-03-10T13:46:48.695Z,69.6
2019-03-10T13:47:38.719Z,69.6
2019-03-10T13:48:28.772Z,69.6
2019-03-10T13:49:18.339Z,69.6
2019-03-10T13:50:08.649Z,69.6
2019-03-10T13:50:59.261Z,69.6
2019-03-10T13:51:47.878Z,69.6
2019-03-10T13:52:38.269Z,69.6
2019-03-10T13:53:28.839Z,69.6
2019-03-10T13:54:19.206Z,69.6
2019-03-10T13:55:08.966Z,69.6
2019-03-10T13:55:58.769Z,69.6
2019-03-10T13:56:49.381Z,69.6
2019-03-10T13:57:39.736Z,69.6
2019-03-10T13:58:29.203Z,69.6
2019-03-10T13:59:19.006Z,69.6
2019-03-10T14:00:09.618Z,69.6
2019-03-10T14:00:59.119Z,69.6
2019-03-10T14:01:48.341Z,69.5
2019-03-10T14:02:39.503Z,69.6
2019-03-10T14:03:29.005Z,69.5
2019-03-10T14:04:19.630Z,69.5
2019-03-10T14:05:09.721Z,69.5
2019-03-10T14:07:41.590Z,69.5
2019-03-10T14:08:31.603Z,69.5
2019-03-10T14:09:20.803Z,69.4
2019-03-10T14:10:13.970Z,69.4
2019-03-10T14:11:01.369Z,69.4
2019-03-10T14:11:51.265Z,69.4
2019-03-10T14:12:41.182Z,69.4
2019-03-10T14:13:31.715Z,69.4
2019-03-10T14:14:21.747Z,69.4
2019-03-10T14:15:11.045Z,69.4
2019-03-10T14:16:01.653Z,69.4
2019-03-10T14:16:51.397Z,69.4
2019-03-10T14:17:41.219Z,69.4
2019-03-10T14:18:32.047Z,69.4
2019-03-10T14:19:22.100Z,69.4
2019-03-10T14:20:12.440Z,69.4
2019-03-10T14:21:01.805Z,69.4
2019-03-10T14:21:52.315Z,69.4
2019-03-10T14:22:41.763Z,69.4
2019-03-10T14:23:32.133Z,69.3
2019-03-10T14:24:22.464Z,69.3